Time;durP1;ratioP1;P1;durP2;ratioP2;P2;SDS_P1;SDS_P2;PMS_P1;PMS_P2;Temp;Humidity;BMP_temperature;BMP_pressure;BME280_temperature;BME280_humidity;BME280_pressure;Samples;Min_cycle;Max_cycle;Signal;HPM_P1;HPM_P2
2023/10/16 00:01:09;;;;;;;7.30;5.05;;;5.30;99.90;;;;;;5018250;28;20034;-76
2023/10/16 00:03:43;;;;;;;5.90;4.88;;;5.30;99.90;;;;;;5001220;28;20503;-76
2023/10/16 00:06:14;;;;;;;8.02;5.63;;;5.30;99.90;;;;;;5016469;28;20039;-76
2023/10/16 00:08:47;;;;;;;6.90;5.50;;;5.30;99.90;;;;;;5017977;28;20412;-76
2023/10/16 00:11:16;;;;;;;7.88;5.18;;;5.30;99.90;;;;;;5003692;28;20033;-76
2023/10/16 00:13:50;;;;;;;6.63;5.35;;;5.30;99.90;;;;;;5019530;28;20027;-76
2023/10/16 00:16:18;;;;;;;6.55;5.32;;;5.30;99.90;;;;;;5001303;28;20033;-75
2023/10/16 00:18:45;;;;;;;7.07;5.57;;;5.40;99.90;;;;;;5021739;28;20025;-75
2023/10/16 00:21:13;;;;;;;7.30;4.78;;;5.40;99.90;;;;;;5036674;28;20516;-76
2023/10/16 00:23:41;;;;;;;8.18;5.40;;;5.40;99.90;;;;;;5023724;28;20556;-75
2023/10/16 00:26:12;;;;;;;10.73;6.38;;;5.50;99.90;;;;;;5001953;28;20035;-75
2023/10/16 00:28:45;;;;;;;8.15;6.40;;;5.60;99.90;;;;;;5020974;28;20044;-76
2023/10/16 00:31:20;;;;;;;8.48;6.70;;;5.60;99.90;;;;;;5017595;28;20049;-76
2023/10/16 00:33:51;;;;;;;7.18;5.20;;;5.60;99.90;;;;;;4997530;28;20037;-76
2023/10/16 00:36:17;;;;;;;8.45;5.03;;;5.70;99.90;;;;;;5016799;28;20030;-76
2023/10/16 00:38:49;;;;;;;7.40;5.55;;;5.60;99.90;;;;;;5017020;28;20021;-76
2023/10/16 00:43:43;;;;;;;6.47;5.38;;;5.60;99.90;;;;;;5016800;28;20369;-76
2023/10/16 00:46:22;;;;;;;7.38;4.93;;;5.60;99.90;;;;;;5020155;28;20037;-76
2023/10/16 00:48:48;;;;;;;5.93;4.30;;;5.60;99.90;;;;;;4999608;28;20029;-76
2023/10/16 00:51:16;;;;;;;6.10;4.80;;;5.50;99.90;;;;;;5003442;28;20036;-76
2023/10/16 00:53:45;;;;;;;5.85;4.57;;;5.50;99.90;;;;;;5020486;28;20044;-76
2023/10/16 00:56:14;;;;;;;5.28;3.15;;;5.50;99.90;;;;;;5021354;28;20041;-76
2023/10/16 00:58:42;;;;;;;7.25;4.78;;;5.50;99.90;;;;;;5017854;28;20029;-76
2023/10/16 01:01:18;;;;;;;7.03;5.15;;;5.60;99.90;;;;;;4999460;28;20526;-76
2023/10/16 01:03:48;;;;;;;7.88;5.35;;;5.60;99.90;;;;;;4997932;28;20041;-76
2023/10/16 01:06:24;;;;;;;6.88;5.00;;;5.60;99.90;;;;;;5000014;28;20041;-76
2023/10/16 01:08:50;;;;;;;7.45;5.28;;;5.60;99.90;;;;;;5015644;28;20056;-76
2023/10/16 01:11:19;;;;;;;6.68;5.03;;;5.60;99.90;;;;;;4980921;28;20041;-76
2023/10/16 01:13:50;;;;;;;6.70;5.72;;;5.60;99.90;;;;;;5000252;28;20044;-76
2023/10/16 01:16:18;;;;;;;6.43;4.55;;;5.60;99.90;;;;;;5001532;28;20041;-76
2023/10/16 01:18:45;;;;;;;8.32;5.72;;;5.50;99.90;;;;;;5000238;28;20472;-76
2023/10/16 01:21:17;;;;;;;6.05;5.25;;;5.50;99.90;;;;;;4982974;28;20045;-76
2023/10/16 01:23:44;;;;;;;8.23;4.97;;;5.50;99.90;;;;;;5016348;28;20033;-76
2023/10/16 01:26:15;;;;;;;6.40;4.88;;;5.50;99.90;;;;;;5019141;28;20163;-76
2023/10/16 01:28:41;;;;;;;6.65;5.35;;;5.50;99.90;;;;;;5018909;28;20515;-76
2023/10/16 01:31:07;;;;;;;7.63;5.50;;;5.50;99.90;;;;;;5017206;28;20033;-76
2023/10/16 01:33:35;;;;;;;8.75;5.45;;;5.40;99.90;;;;;;5015844;28;20033;-76
2023/10/16 01:36:07;;;;;;;7.57;5.72;;;5.50;99.90;;;;;;4997287;28;20614;-76
2023/10/16 01:38:34;;;;;;;6.73;5.63;;;5.50;99.90;;;;;;5010339;28;20041;-76
2023/10/16 01:41:05;;;;;;;6.43;5.07;;;5.50;99.90;;;;;;5016747;28;20291;-76
2023/10/16 01:43:32;;;;;;;7.72;6.13;;;5.50;99.90;;;;;;4996087;28;20038;-76
2023/10/16 01:46:03;;;;;;;8.52;6.35;;;5.60;99.90;;;;;;5017621;28;20500;-76
2023/10/16 01:48:29;;;;;;;7.22;5.85;;;5.60;99.90;;;;;;5019409;28;20452;-76
2023/10/16 01:50:56;;;;;;;9.48;5.93;;;5.70;99.90;;;;;;5019549;28;20381;-76
2023/10/16 01:53:26;;;;;;;7.05;5.93;;;5.70;99.90;;;;;;5000158;28;20036;-76
2023/10/16 01:55:55;;;;;;;8.55;5.80;;;5.70;99.90;;;;;;5001849;28;20457;-76
2023/10/16 01:58:30;;;;;;;6.15;5.55;;;5.60;99.90;;;;;;4985352;28;20067;-76
2023/10/16 02:00:57;;;;;;;8.05;5.78;;;5.60;99.90;;;;;;5017707;28;20025;-76
2023/10/16 02:03:25;;;;;;;8.45;5.78;;;5.60;99.90;;;;;;4994829;28;20037;-76
2023/10/16 02:05:53;;;;;;;7.38;5.13;;;5.60;99.90;;;;;;5014343;28;20042;-76
2023/10/16 02:08:20;;;;;;;8.32;6.38;;;5.50;99.90;;;;;;4996832;28;20044;-76
2023/10/16 02:10:48;;;;;;;7.60;5.45;;;5.50;99.90;;;;;;4999750;28;20049;-76
2023/10/16 02:13:14;;;;;;;7.57;6.28;;;5.50;99.90;;;;;;4999249;28;20044;-76
2023/10/16 02:15:42;;;;;;;6.95;5.88;;;5.50;99.90;;;;;;4982313;28;20489;-76
2023/10/16 02:18:36;;;;;;;7.38;5.70;;;5.60;99.90;;;;;;5031276;28;20033;-76
2023/10/16 02:20:55;;;;;;;7.35;5.68;;;5.60;99.90;;;;;;5000387;28;20052;-76
2023/10/16 02:23:22;;;;;;;6.47;5.43;;;5.70;99.90;;;;;;5019259;28;20040;-76
2023/10/16 02:25:48;;;;;;;6.78;5.43;;;5.80;99.90;;;;;;5016552;28;20022;-76
2023/10/16 02:28:19;;;;;;;8.38;6.07;;;5.90;99.90;;;;;;5020066;28;20057;-76
2023/10/16 02:30:49;;;;;;;7.30;5.90;;;6.00;99.90;;;;;;5013419;28;20037;-76
2023/10/16 02:33:26;;;;;;;7.63;6.63;;;6.10;99.90;;;;;;5013345;28;20037;-76
2023/10/16 02:35:53;;;;;;;8.30;7.05;;;6.10;99.90;;;;;;5012543;28;20033;-76
2023/10/16 02:38:23;;;;;;;9.90;6.88;;;6.10;99.90;;;;;;4982251;28;20481;-76
2023/10/16 02:40:53;;;;;;;6.93;5.63;;;6.10;99.90;;;;;;5014554;28;20041;-76
2023/10/16 02:43:20;;;;;;;9.50;6.68;;;6.20;99.90;;;;;;5017565;28;20044;-76
2023/10/16 02:45:55;;;;;;;7.55;5.93;;;6.20;99.90;;;;;;4998591;28;20037;-76
2023/10/16 02:48:22;;;;;;;8.20;6.07;;;6.20;99.90;;;;;;5013184;28;20431;-76
2023/10/16 02:50:56;;;;;;;6.18;5.28;;;6.30;99.90;;;;;;4998353;28;20049;-76
2023/10/16 02:53:28;;;;;;;6.40;5.40;;;6.40;99.90;;;;;;4981356;28;20400;-77
2023/10/16 02:56:04;;;;;;;6.13;5.03;;;6.50;99.90;;;;;;5013743;28;20397;-77
2023/10/16 02:58:32;;;;;;;7.55;5.38;;;6.60;99.90;;;;;;5000274;28;20048;-76
2023/10/16 03:00:59;;;;;;;7.40;4.97;;;6.50;99.90;;;;;;4981033;28;20038;-76
2023/10/16 03:03:27;;;;;;;7.80;4.70;;;6.50;99.90;;;;;;5017235;28;20038;-76
2023/10/16 03:05:55;;;;;;;5.90;4.10;;;6.40;99.90;;;;;;4997848;28;20602;-76
2023/10/16 03:08:27;;;;;;;7.20;4.22;;;6.30;99.90;;;;;;5035130;28;20037;-77
2023/10/16 03:11:07;;;;;;;4.53;3.65;;;6.20;99.90;;;;;;5035549;28;20389;-77
2023/10/16 03:13:35;;;;;;;6.43;4.35;;;6.20;99.90;;;;;;5016314;28;20029;-76
2023/10/16 03:16:07;;;;;;;4.75;4.22;;;6.10;99.90;;;;;;5019590;28;20030;-77
2023/10/16 03:18:34;;;;;;;6.13;4.40;;;6.10;99.90;;;;;;5019969;28;20032;-76
2023/10/16 03:23:43;;;;;;;5.75;3.17;;;6.00;99.90;;;;;;5021275;28;20381;-76
2023/10/16 03:26:22;;;;;;;7.00;3.38;;;6.00;99.90;;;;;;5004725;28;20021;-76
2023/10/16 03:28:48;;;;;;;7.82;3.90;;;6.00;99.90;;;;;;5036247;28;20041;-76
2023/10/16 03:31:15;;;;;;;4.18;3.65;;;6.00;99.90;;;;;;5003065;28;20034;-78
2023/10/16 03:33:43;;;;;;;4.60;3.35;;;6.10;99.90;;;;;;5021370;28;20030;-78
2023/10/16 03:36:09;;;;;;;3.92;3.10;;;6.10;99.90;;;;;;5019619;28;20029;-76
2023/10/16 03:38:37;;;;;;;7.38;3.92;;;6.20;99.90;;;;;;5003617;28;20439;-76
2023/10/16 03:41:11;;;;;;;6.53;4.63;;;6.30;99.90;;;;;;5002076;28;20033;-77
2023/10/16 03:43:42;;;;;;;7.22;4.82;;;6.40;99.90;;;;;;5017306;28;20045;-77
2023/10/16 03:46:10;;;;;;;5.78;4.10;;;6.50;99.90;;;;;;5018472;28;20037;-77
2023/10/16 03:48:38;;;;;;;5.35;3.60;;;6.60;99.90;;;;;;5000504;28;20484;-77
2023/10/16 03:51:08;;;;;;;8.65;3.88;;;6.70;99.90;;;;;;5019374;28;20041;-77
2023/10/16 03:53:35;;;;;;;6.85;3.45;;;6.70;99.90;;;;;;5022391;28;20034;-77
2023/10/16 03:56:02;;;;;;;6.57;3.40;;;6.80;99.90;;;;;;5019419;28;20415;-76
2023/10/16 03:58:40;;;;;;;4.68;3.15;;;6.90;99.90;;;;;;5019289;28;20033;-76
2023/10/16 04:01:08;;;;;;;5.47;3.00;;;6.90;99.90;;;;;;5017728;28;20028;-77
2023/10/16 04:04:21;;;;;;;6.22;3.08;;;7.00;99.90;;;;;;5020731;28;20026;-76
2023/10/16 04:06:21;;;;;;;6.63;2.97;;;7.10;99.90;;;;;;5015750;28;20485;-77
2023/10/16 04:08:59;;;;;;;5.60;3.13;;;7.10;99.90;;;;;;5002469;28;20052;-76
2023/10/16 04:11:26;;;;;;;5.28;2.40;;;7.20;99.90;;;;;;5000528;28;20384;-76
2023/10/16 04:13:53;;;;;;;5.35;2.55;;;7.20;99.90;;;;;;5020954;28;20037;-77
2023/10/16 04:22:08;;;;;;;3.50;1.73;;;7.30;99.90;;;;;;5002989;28;20056;-76
2023/10/16 04:24:44;;;;;;;3.28;1.75;;;7.30;99.90;;;;;;5035579;28;20355;-77
2023/10/16 04:30:10;;;;;;;3.17;1.75;;;7.30;99.90;;;;;;5017446;28;20052;-77
2023/10/16 04:32:42;;;;;;;4.43;1.95;;;7.20;99.90;;;;;;5017472;28;20045;-76
2023/10/16 04:43:38;;;;;;;3.58;1.92;;;6.80;99.90;;;;;;5019163;28;20033;-76
2023/10/16 04:46:20;;;;;;;5.78;1.30;;;6.80;99.90;;;;;;5018889;28;20140;-77
2023/10/16 04:48:51;;;;;;;2.97;1.52;;;6.80;99.90;;;;;;5015969;28;20041;-76
2023/10/16 04:51:38;;;;;;;3.45;1.45;;;6.80;99.90;;;;;;4997775;28;20344;-77
2023/10/16 04:54:16;;;;;;;4.15;1.10;;;6.80;99.90;;;;;;5001938;28;20033;-76
2023/10/16 04:57:07;;;;;;;2.83;1.17;;;6.80;99.90;;;;;;4998891;28;20467;-76
2023/10/16 04:59:37;;;;;;;4.78;1.13;;;6.80;99.90;;;;;;5016814;28;20048;-77
2023/10/16 05:02:11;;;;;;;3.40;1.50;;;6.70;99.90;;;;;;5001377;28;20038;-76
2023/10/16 05:04:59;;;;;;;3.05;0.98;;;6.70;99.90;;;;;;5017146;28;20033;-76
2023/10/16 05:07:45;;;;;;;4.18;1.65;;;6.60;99.90;;;;;;5013745;28;20029;-77
2023/10/16 05:10:17;;;;;;;5.50;1.92;;;6.60;99.90;;;;;;5016260;28;20045;-78
2023/10/16 05:18:43;;;;;;;4.47;2.92;;;6.50;99.90;;;;;;5006293;28;20042;-77
2023/10/16 05:22:02;;;;;;;5.63;3.10;;;6.50;99.90;;;;;;4999627;28;20484;-77
2023/10/16 06:16:28;;;;;;;5.30;2.85;;;7.30;99.90;;;;;;5031892;28;20028;-76
2023/10/16 06:18:54;;;;;;;4.38;2.65;;;7.40;99.90;;;;;;4997730;28;20033;-81
2023/10/16 06:21:21;;;;;;;5.93;3.00;;;7.50;99.90;;;;;;5002276;28;20523;-76
2023/10/16 06:23:48;;;;;;;4.90;3.13;;;7.50;99.90;;;;;;5001990;28;20037;-77
2023/10/16 06:26:21;;;;;;;4.35;2.83;;;7.60;99.90;;;;;;4999514;28;20025;-77
2023/10/16 06:28:47;;;;;;;3.88;3.05;;;7.60;99.90;;;;;;4995346;28;20389;-76
2023/10/16 06:31:23;;;;;;;5.78;3.45;;;7.70;99.90;;;;;;5014787;28;20038;-76
2023/10/16 06:33:56;;;;;;;4.50;3.00;;;7.80;99.90;;;;;;4998602;28;20064;-76
2023/10/16 06:36:24;;;;;;;4.90;2.67;;;7.80;99.90;;;;;;5017256;28;20037;-76
2023/10/16 06:38:51;;;;;;;5.88;3.10;;;7.90;99.90;;;;;;5014982;28;20037;-76
2023/10/16 06:41:21;;;;;;;6.05;3.70;;;7.90;99.90;;;;;;5017484;28;20025;-77
2023/10/16 06:43:51;;;;;;;6.80;3.53;;;8.00;99.90;;;;;;5005084;28;20037;-76
2023/10/16 06:46:25;;;;;;;6.25;3.20;;;8.00;99.90;;;;;;5037635;28;20469;-76
2023/10/16 06:48:52;;;;;;;5.47;3.15;;;8.00;99.90;;;;;;5038870;28;20037;-76
2023/10/16 06:51:22;;;;;;;3.28;2.45;;;8.00;99.90;;;;;;5023778;28;20030;-76
2023/10/16 06:53:48;;;;;;;3.65;2.90;;;8.00;99.90;;;;;;5021480;28;20033;-76
2023/10/16 06:56:18;;;;;;;4.35;2.80;;;8.10;99.90;;;;;;5025065;28;20021;-76
2023/10/16 06:58:45;;;;;;;7.47;2.85;;;8.10;99.90;;;;;;5018357;28;20037;-75
2023/10/16 07:01:19;;;;;;;6.05;3.03;;;8.10;99.90;;;;;;5002560;28;20036;-76
2023/10/16 07:03:47;;;;;;;5.65;2.90;;;8.20;99.90;;;;;;5000420;28;20033;-76
2023/10/16 07:06:14;;;;;;;5.18;2.58;;;8.30;99.90;;;;;;5003485;28;20044;-76
2023/10/16 07:08:41;;;;;;;6.18;3.38;;;8.30;99.90;;;;;;5003669;28;20464;-76
2023/10/16 07:11:11;;;;;;;5.78;3.33;;;8.40;99.90;;;;;;5022835;28;20051;-76
2023/10/16 07:13:40;;;;;;;4.22;3.55;;;8.50;99.90;;;;;;4989693;28;20033;-76
2023/10/16 07:16:07;;;;;;;5.93;2.92;;;8.50;99.90;;;;;;4985577;28;20041;-76
2023/10/16 07:18:35;;;;;;;5.00;3.30;;;8.50;99.90;;;;;;5004489;28;20029;-76
2023/10/16 07:23:29;;;;;;;4.95;3.33;;;8.60;99.90;;;;;;5025858;28;20037;-76
2023/10/16 07:25:58;;;;;;;4.78;2.88;;;8.60;99.90;;;;;;5037471;28;20049;-76
2023/10/16 07:28:26;;;;;;;4.28;2.97;;;8.60;99.90;;;;;;5021238;28;20033;-76
2023/10/16 07:30:56;;;;;;;5.63;3.75;;;8.60;99.90;;;;;;5018489;28;20024;-76
2023/10/16 07:33:23;;;;;;;6.00;3.55;;;8.60;99.90;;;;;;5019840;28;20407;-76
2023/10/16 07:35:51;;;;;;;5.93;3.33;;;8.60;99.90;;;;;;5018079;28;20411;-75
2023/10/16 07:38:20;;;;;;;5.40;3.67;;;8.60;99.90;;;;;;5036793;28;20049;-76
2023/10/16 07:40:51;;;;;;;4.68;3.45;;;8.60;99.90;;;;;;5020060;28;20030;-76
2023/10/16 07:43:18;;;;;;;6.72;3.72;;;8.70;99.90;;;;;;5001029;28;20484;-76
2023/10/16 07:45:45;;;;;;;6.70;4.25;;;8.70;99.90;;;;;;5003354;28;20619;-75
2023/10/16 07:48:20;;;;;;;5.28;3.50;;;8.80;99.90;;;;;;5022487;28;20451;-75
2023/10/16 07:50:48;;;;;;;6.43;4.57;;;8.90;99.90;;;;;;4986536;28;20036;-75
2023/10/16 07:53:17;;;;;;;5.97;4.50;;;9.00;99.90;;;;;;5019837;28;20036;-75
2023/10/16 07:55:50;;;;;;;6.25;4.88;;;9.10;99.90;;;;;;5007061;28;20040;-75
2023/10/16 07:58:23;;;;;;;5.78;5.05;;;9.20;99.90;;;;;;5020121;28;20036;-75
2023/10/16 08:01:17;;;;;;;6.82;5.63;;;9.30;99.90;;;;;;5033496;28;23289;-76
2023/10/16 08:03:48;;;;;;;6.57;5.45;;;9.50;99.90;;;;;;5002628;28;20032;-76
2023/10/16 08:06:23;;;;;;;10.80;5.63;;;9.60;99.90;;;;;;5016503;28;20496;-75
2023/10/16 08:09:19;;;;;;;7.75;5.53;;;9.70;99.90;;;;;;5015473;28;20453;-76
2023/10/16 08:11:43;;;;;;;8.68;6.50;;;9.80;99.90;;;;;;5000702;28;20076;-76
2023/10/16 08:14:10;;;;;;;6.57;4.90;;;9.90;99.90;;;;;;5021906;28;20025;-76
2023/10/16 08:16:39;;;;;;;7.43;4.82;;;9.90;99.90;;;;;;5005189;28;20353;-76
2023/10/16 08:19:15;;;;;;;7.25;4.45;;;10.00;99.90;;;;;;5004648;28;20041;-76
2023/10/16 08:21:42;;;;;;;6.45;4.18;;;10.20;99.90;;;;;;5006626;28;20041;-76
2023/10/16 08:24:13;;;;;;;8.30;4.28;;;10.30;99.90;;;;;;4987553;28;20032;-76
2023/10/16 08:26:43;;;;;;;4.85;3.45;;;10.40;99.90;;;;;;4985814;28;20037;-76
2023/10/16 08:29:17;;;;;;;5.72;2.70;;;10.60;99.90;;;;;;5034900;28;20065;-75
2023/10/16 08:31:47;;;;;;;4.25;2.55;;;10.70;99.90;;;;;;5018793;28;20037;-76
2023/10/16 08:34:21;;;;;;;3.72;2.13;;;10.80;99.90;;;;;;5019204;28;20405;-76
2023/10/16 08:36:51;;;;;;;3.47;2.08;;;10.80;99.90;;;;;;5015412;28;20901;-76
2023/10/16 08:39:19;;;;;;;4.68;2.15;;;10.90;99.90;;;;;;5017017;28;20378;-76
2023/10/16 08:41:52;;;;;;;4.60;1.60;;;11.00;99.90;;;;;;5018680;28;20033;-75
2023/10/16 08:44:19;;;;;;;4.30;1.48;;;11.00;99.90;;;;;;5036215;28;20479;-76
2023/10/16 08:46:52;;;;;;;3.63;1.67;;;11.00;99.90;;;;;;5015729;28;20033;-76
2023/10/16 08:49:22;;;;;;;2.42;1.10;;;11.10;99.90;;;;;;5020325;28;20041;-76
2023/10/16 08:52:04;;;;;;;3.10;1.20;;;11.10;99.90;;;;;;5002526;28;20037;-75
2023/10/16 08:57:19;;;;;;;3.20;0.82;;;11.30;99.90;;;;;;5019167;28;20028;-76
2023/10/16 08:59:49;;;;;;;5.13;1.75;;;11.40;99.90;;;;;;4984192;28;20021;-75
2023/10/16 09:02:20;;;;;;;3.58;1.30;;;11.60;99.90;;;;;;5018413;28;20041;-76
2023/10/16 09:04:52;;;;;;;3.97;1.25;;;11.70;99.90;;;;;;5017344;28;20029;-75
2023/10/16 09:07:19;;;;;;;2.70;1.00;;;11.90;99.90;;;;;;5019752;28;20029;-75
2023/10/16 09:09:53;;;;;;;4.35;1.30;;;11.90;99.90;;;;;;5031803;28;20041;-76
2023/10/16 09:12:37;;;;;;;2.30;1.35;;;12.00;99.90;;;;;;5019987;28;20029;-76
2023/10/16 09:15:09;;;;;;;2.15;0.93;;;12.10;99.90;;;;;;5017900;28;20034;-76
2023/10/16 09:17:35;;;;;;;4.30;1.13;;;12.30;99.90;;;;;;5017764;28;20033;-76
2023/10/16 09:20:13;;;;;;;4.90;1.75;;;12.40;99.90;;;;;;5019061;28;20036;-76
2023/10/16 09:22:47;;;;;;;2.63;1.52;;;12.50;99.90;;;;;;5016916;28;20387;-75
2023/10/16 09:25:15;;;;;;;5.90;1.70;;;12.60;99.90;;;;;;5015692;28;20045;-76
2023/10/16 09:27:42;;;;;;;4.20;1.75;;;12.70;99.90;;;;;;4987254;28;20029;-76
2023/10/16 09:30:15;;;;;;;4.03;1.45;;;12.80;99.90;;;;;;5015115;28;20021;-76
2023/10/16 09:32:42;;;;;;;;;;;12.90;99.90;;;;;;5015687;28;20491;-75
2023/10/16 09:35:14;;;;;;;3.53;1.10;;;13.00;99.90;;;;;;5017035;28;19905;-75
2023/10/16 09:37:41;;;;;;;2.65;0.90;;;13.00;99.90;;;;;;5017005;28;20029;-75
2023/10/16 09:40:36;;;;;;;2.83;0.95;;;13.00;99.90;;;;;;5000780;28;20032;-76
2023/10/16 09:43:06;;;;;;;2.05;1.15;;;12.90;99.90;;;;;;4989039;28;20056;-76
2023/10/16 09:45:33;;;;;;;3.42;1.02;;;12.90;99.90;;;;;;5016386;28;20049;-75
2023/10/16 09:48:07;;;;;;;4.47;1.08;;;13.00;99.90;;;;;;5000631;28;20368;-75
2023/10/16 09:50:38;;;;;;;3.72;0.95;;;12.90;99.90;;;;;;5016776;28;20028;-75
2023/10/16 09:53:08;;;;;;;4.53;0.85;;;13.00;99.90;;;;;;5021809;28;20025;-75
2023/10/16 09:55:48;;;;;;;2.08;0.70;;;13.00;99.90;;;;;;5003245;28;20029;-75
2023/10/16 09:58:18;;;;;;;3.63;0.75;;;13.00;99.90;;;;;;5001507;28;20037;-75
2023/10/16 10:00:46;;;;;;;0.90;0.60;;;13.20;99.90;;;;;;5019532;28;20048;-75
2023/10/16 10:03:15;;;;;;;2.22;0.75;;;13.30;99.90;;;;;;5017089;28;20040;-75
2023/10/16 10:05:55;;;;;;;1.88;0.73;;;13.40;99.90;;;;;;5018038;28;20037;-75
2023/10/16 10:08:28;;;;;;;2.55;0.88;;;13.60;99.90;;;;;;5000446;28;20036;-76
2023/10/16 10:11:27;;;;;;;3.83;0.52;;;13.80;99.90;;;;;;5016944;28;20044;-81
2023/10/16 10:14:09;;;;;;;2.47;0.60;;;14.00;99.90;;;;;;5033118;28;20041;-74
2023/10/16 10:16:45;;;;;;;1.83;0.50;;;14.30;99.90;;;;;;4999160;28;20381;-76
2023/10/16 10:19:31;;;;;;;3.03;0.60;;;14.40;99.90;;;;;;4999501;28;20052;-75
2023/10/16 10:22:06;;;;;;;1.35;0.40;;;14.50;99.90;;;;;;5017219;28;20060;-75
2023/10/16 10:24:35;;;;;;;2.78;0.60;;;14.60;99.90;;;;;;5000955;28;20041;-75
2023/10/16 10:27:11;;;;;;;1.92;0.30;;;14.70;99.90;;;;;;4984196;28;20033;-75
2023/10/16 10:29:43;;;;;;;1.35;0.30;;;14.70;99.90;;;;;;5001686;28;20032;-75
2023/10/16 10:32:13;;;;;;;;;;;14.60;99.90;;;;;;5018541;28;20540;-75
2023/10/16 10:34:40;;;;;;;2.28;0.40;;;14.60;99.90;;;;;;5016574;28;19916;-75
2023/10/16 10:37:44;;;;;;;2.72;1.10;;;14.90;99.90;;;;;;5029327;28;20033;-76
2023/10/16 10:40:18;;;;;;;1.73;0.50;;;15.30;99.90;;;;;;5014892;28;20041;-76
2023/10/16 10:42:47;;;;;;;2.50;0.80;;;15.60;99.90;;;;;;5017669;28;20380;-75
2023/10/16 10:45:21;;;;;;;1.63;0.30;;;15.80;99.90;;;;;;4984571;28;20347;-75
2023/10/16 10:47:47;;;;;;;1.10;0.40;;;16.10;99.90;;;;;;4982839;28;20787;-76
2023/10/16 10:50:14;;;;;;;2.53;0.45;;;16.10;99.90;;;;;;4997999;28;20049;-75
2023/10/16 10:52:43;;;;;;;2.25;0.30;;;16.20;99.90;;;;;;5001547;28;20049;-75
2023/10/16 10:55:21;;;;;;;2.30;0.57;;;16.10;99.90;;;;;;5018336;28;20036;-75
2023/10/16 10:57:55;;;;;;;1.10;0.40;;;16.00;99.90;;;;;;5017329;28;20024;-75
2023/10/16 11:00:43;;;;;;;1.90;0.40;;;15.70;99.90;;;;;;5018808;28;20026;-76
2023/10/16 11:03:22;;;;;;;1.67;0.40;;;15.60;99.90;;;;;;5010491;28;20053;-75
2023/10/16 11:05:49;;;;;;;1.52;0.35;;;15.60;99.90;;;;;;5016055;28;20040;-75
2023/10/16 11:08:25;;;;;;;0.63;0.30;;;15.60;99.90;;;;;;5016089;28;20025;-73
2023/10/16 11:10:52;;;;;;;1.08;0.30;;;15.50;99.90;;;;;;5029020;28;20333;-76
2023/10/16 11:13:21;;;;;;;0.85;0.20;;;15.40;99.90;;;;;;4977431;28;20037;-75
2023/10/16 11:15:54;;;;;;;1.30;0.25;;;15.40;99.90;;;;;;4996075;28;20038;-75
2023/10/16 11:18:22;;;;;;;1.00;0.20;;;15.50;99.90;;;;;;5024721;28;20038;-75
2023/10/16 11:20:52;;;;;;;1.45;0.20;;;15.50;99.90;;;;;;5010970;28;20045;-75
2023/10/16 11:23:21;;;;;;;1.25;0.22;;;15.50;99.90;;;;;;5010953;28;20499;-76
2023/10/16 11:25:51;;;;;;;0.82;0.13;;;15.50;99.90;;;;;;5008350;28;20049;-75
2023/10/16 11:28:28;;;;;;;1.90;0.20;;;15.40;99.90;;;;;;4998939;28;20029;-76
2023/10/16 11:30:57;;;;;;;3.25;0.30;;;15.40;99.90;;;;;;5009062;28;20048;-76
2023/10/16 11:33:27;;;;;;;1.33;0.30;;;15.20;99.90;;;;;;5018598;28;20033;-75
2023/10/16 11:36:02;;;;;;;3.00;0.70;;;15.10;99.90;;;;;;5032493;28;20037;-75
2023/10/16 11:38:32;;;;;;;1.92;0.75;;;15.00;99.90;;;;;;5015262;28;20017;-75
2023/10/16 11:41:05;;;;;;;2.55;0.60;;;14.80;99.90;;;;;;5018663;28;20025;-76
2023/10/16 11:43:34;;;;;;;1.55;0.40;;;14.80;99.90;;;;;;5019857;28;20346;-76
2023/10/16 11:46:06;;;;;;;1.40;0.20;;;14.80;99.90;;;;;;4999776;28;20049;-76
2023/10/16 11:51:18;;;;;;;2.50;0.40;;;14.80;99.90;;;;;;5019488;28;20033;-76
2023/10/16 11:53:46;;;;;;;1.45;0.25;;;14.80;99.90;;;;;;5019720;28;20052;-75
2023/10/16 11:56:13;;;;;;;2.80;0.40;;;14.90;99.90;;;;;;4997687;28;20037;-76
2023/10/16 11:58:40;;;;;;;1.10;0.30;;;14.90;99.90;;;;;;5017639;28;20041;-76
2023/10/16 12:01:09;;;;;;;0.75;0.20;;;14.90;99.90;;;;;;5014806;28;20033;-76
2023/10/16 12:03:39;;;;;;;3.85;0.65;;;15.00;99.90;;;;;;5014118;28;20044;-76
2023/10/16 12:06:08;;;;;;;7.38;0.65;;;14.90;99.90;;;;;;4998188;28;20477;-76
2023/10/16 12:08:37;;;;;;;1.65;0.20;;;14.80;99.90;;;;;;4997956;28;20025;-75
2023/10/16 12:11:04;;;;;;;5.90;2.83;;;14.80;99.90;;;;;;5013976;28;20676;-75
2023/10/16 12:13:31;;;;;;;6.28;2.00;;;14.70;99.90;;;;;;4997241;28;20206;-76
2023/10/16 12:15:58;;;;;;;4.38;1.55;;;14.90;99.90;;;;;;5014494;28;20030;-76
2023/10/16 12:18:31;;;;;;;2.83;0.75;;;15.20;99.90;;;;;;4996855;28;20052;-75
2023/10/16 12:21:04;;;;;;;3.28;0.50;;;15.40;99.90;;;;;;4979864;28;20045;-75
2023/10/16 12:23:33;;;;;;;2.08;0.22;;;15.60;99.90;;;;;;5015160;28;20050;-76
2023/10/16 12:26:00;;;;;;;1.75;0.47;;;15.90;99.90;;;;;;5029655;28;20042;-76
2023/10/16 12:28:26;;;;;;;2.53;0.30;;;16.30;99.90;;;;;;5011906;28;20048;-76
2023/10/16 12:30:57;;;;;;;1.70;0.28;;;16.40;99.90;;;;;;5012688;28;20052;-76
2023/10/16 12:33:26;;;;;;;1.17;0.30;;;16.60;99.90;;;;;;4998437;28;20045;-76
2023/10/16 12:35:57;;;;;;;2.70;0.30;;;16.60;99.90;;;;;;5009447;28;20032;-76
2023/10/16 12:38:23;;;;;;;1.23;0.20;;;16.60;99.90;;;;;;5019220;28;20041;-76
2023/10/16 12:40:55;;;;;;;1.95;0.38;;;16.70;99.90;;;;;;5018271;28;20029;-76
2023/10/16 12:43:25;;;;;;;1.73;0.25;;;16.80;99.90;;;;;;5018090;28;20032;-76
2023/10/16 12:45:52;;;;;;;2.42;0.30;;;16.90;99.90;;;;;;4982634;28;20044;-76
2023/10/16 12:48:18;;;;;;;1.17;0.30;;;16.90;99.90;;;;;;5017066;28;20028;-75
2023/10/16 12:50:47;;;;;;;2.80;0.30;;;16.70;99.90;;;;;;5018858;28;20507;-76
2023/10/16 12:53:14;;;;;;;2.15;0.30;;;16.50;99.90;;;;;;5000066;28;20109;-75
2023/10/16 12:55:42;;;;;;;0.85;0.20;;;16.20;99.90;;;;;;5017442;28;20044;-76
2023/10/16 12:58:10;;;;;;;2.90;0.30;;;16.10;99.90;;;;;;5017610;28;20040;-76
2023/10/16 13:00:40;;;;;;;1.23;0.25;;;15.90;99.90;;;;;;5018987;28;20277;-75
2023/10/16 13:03:13;;;;;;;2.60;0.30;;;15.80;99.90;;;;;;5019483;28;20033;-76
2023/10/16 13:05:43;;;;;;;0.98;0.30;;;15.80;99.90;;;;;;5002977;28;20048;-76
2023/10/16 13:08:10;;;;;;;1.30;0.20;;;15.70;99.90;;;;;;5033748;28;20041;-75
2023/10/16 13:10:36;;;;;;;2.65;0.20;;;15.70;99.90;;;;;;5001563;28;20041;-75
2023/10/16 13:13:03;;;;;;;1.15;0.20;;;15.60;99.90;;;;;;4999698;28;20440;-76
2023/10/16 13:15:29;;;;;;;2.85;1.55;;;15.50;99.90;;;;;;5015234;28;20025;-75
2023/10/16 13:17:57;;;;;;;6.40;1.13;;;15.50;99.90;;;;;;4999957;28;20414;-75
2023/10/16 13:20:30;;;;;;;3.53;0.60;;;15.30;99.90;;;;;;5000084;28;20045;-75
2023/10/16 13:22:57;;;;;;;1.67;0.70;;;15.30;99.90;;;;;;5031466;28;20033;-75
2023/10/16 13:25:25;;;;;;;1.90;0.30;;;15.10;99.90;;;;;;5017226;28;20040;-75
2023/10/16 13:27:52;;;;;;;1.42;0.30;;;15.10;99.90;;;;;;4995736;28;20120;-76
2023/10/16 13:30:22;;;;;;;0.52;0.22;;;15.00;99.90;;;;;;5016309;28;20029;-76
2023/10/16 13:32:49;;;;;;;1.45;0.30;;;15.00;99.90;;;;;;5018472;28;20041;-75
2023/10/16 13:35:16;;;;;;;3.25;0.20;;;15.00;99.90;;;;;;5018981;28;20423;-75
2023/10/16 13:37:44;;;;;;;1.73;0.30;;;15.00;99.90;;;;;;5018471;28;20377;-75
2023/10/16 13:40:21;;;;;;;1.38;0.30;;;15.10;99.90;;;;;;5017894;28;20041;-75
2023/10/16 13:42:51;;;;;;;1.80;0.35;;;15.10;99.90;;;;;;5014242;28;20389;-75
2023/10/16 13:45:18;;;;;;;0.98;0.20;;;15.10;99.90;;;;;;4998307;28;21492;-75
2023/10/16 13:47:45;;;;;;;2.15;0.40;;;15.10;99.90;;;;;;4997499;28;20728;-77
2023/10/16 13:50:13;;;;;;;2.97;0.40;;;15.20;99.90;;;;;;5010198;28;20064;-77
2023/10/16 13:52:46;;;;;;;4.78;0.30;;;15.20;99.90;;;;;;5017372;28;20416;-76
2023/10/16 13:55:13;;;;;;;1.83;0.30;;;15.20;99.90;;;;;;5033643;28;20021;-75
2023/10/16 13:57:42;;;;;;;0.95;0.30;;;15.20;99.90;;;;;;5017147;28;20032;-76
2023/10/16 14:00:18;;;;;;;1.92;0.30;;;15.20;99.90;;;;;;5018191;28;20030;-76
2023/10/16 14:02:45;;;;;;;2.90;0.45;;;15.20;99.90;;;;;;5001015;28;20040;-75
2023/10/16 14:05:13;;;;;;;2.47;0.90;;;15.20;99.90;;;;;;5019929;28;20021;-75
2023/10/16 14:07:40;;;;;;;1.63;0.70;;;15.20;99.90;;;;;;5001720;28;20036;-75
2023/10/16 14:10:07;;;;;;;1.45;0.50;;;15.20;99.90;;;;;;4987958;28;20049;-75
2023/10/16 14:12:37;;;;;;;2.55;0.40;;;15.10;99.90;;;;;;5015955;28;20041;-76
2023/10/16 14:15:04;;;;;;;1.73;0.40;;;15.00;99.90;;;;;;5014966;28;20033;-76
2023/10/16 14:17:37;;;;;;;1.48;0.32;;;14.90;99.90;;;;;;5015159;28;20037;-76
2023/10/16 14:20:11;;;;;;;1.33;0.30;;;14.90;99.90;;;;;;4999660;28;20041;-75
2023/10/16 14:22:47;;;;;;;2.03;0.30;;;14.80;99.90;;;;;;4989822;28;20565;-75
2023/10/16 14:25:15;;;;;;;2.75;0.20;;;14.80;99.90;;;;;;5027272;28;20388;-75
2023/10/16 14:27:41;;;;;;;2.60;0.40;;;14.70;99.90;;;;;;5013426;28;20064;-76
2023/10/16 14:30:10;;;;;;;1.70;0.40;;;14.70;99.90;;;;;;5031336;28;20032;-76
2023/10/16 14:32:37;;;;;;;1.55;0.40;;;14.60;99.90;;;;;;5017473;28;20037;-75
2023/10/16 14:35:04;;;;;;;2.65;0.80;;;14.50;99.90;;;;;;5012684;28;20048;-75
2023/10/16 14:37:31;;;;;;;3.08;0.90;;;14.50;99.90;;;;;;5018232;28;20294;-75
2023/10/16 14:39:57;;;;;;;1.58;0.50;;;14.50;99.90;;;;;;5019275;28;20449;-75